createdAt,value
2023-08-12T00:00:48.624Z,9.60
2023-08-12T00:03:17.322Z,9.73
2023-08-12T00:05:47.147Z,9.05
2023-08-12T00:08:15.214Z,12.10
2023-08-12T00:10:43.579Z,7.65
2023-08-12T00:13:11.438Z,9.60
2023-08-12T00:15:39.514Z,10.82
2023-08-12T00:18:10.765Z,9.05
2023-08-12T00:20:39.460Z,13.18
2023-08-12T00:23:07.771Z,8.75
2023-08-12T00:25:35.678Z,8.95
2023-08-12T00:28:04.150Z,9.27
2023-08-12T00:30:32.498Z,10.15
2023-08-12T00:33:04.049Z,10.95
2023-08-12T00:35:32.417Z,12.33
2023-08-12T00:38:00.335Z,10.30
2023-08-12T00:40:28.434Z,10.93
2023-08-12T00:42:56.717Z,8.07
2023-08-12T00:45:24.672Z,11.07
2023-08-12T00:47:52.934Z,10.45
2023-08-12T00:50:21.806Z,9.48
2023-08-12T00:52:51.737Z,9.30
2023-08-12T00:55:20.033Z,11.98
2023-08-12T00:57:48.742Z,10.20
2023-08-12T01:00:22.394Z,9.88
2023-08-12T01:02:51.246Z,8.57
2023-08-12T01:05:20.872Z,8.93
2023-08-12T01:07:49.670Z,9.63
2023-08-12T01:10:18.366Z,12.25
2023-08-12T01:13:09.048Z,8.60
2023-08-12T01:15:39.133Z,10.45
2023-08-12T01:18:09.430Z,9.30
2023-08-12T01:20:38.412Z,12.05
2023-08-12T01:23:16.350Z,8.98
2023-08-12T01:25:45.697Z,10.77
2023-08-12T01:28:13.857Z,13.48
2023-08-12T01:31:11.746Z,10.88
2023-08-12T01:34:26.674Z,7.95
2023-08-12T01:36:59.812Z,10.95
2023-08-12T01:39:29.422Z,10.98
2023-08-12T01:41:57.610Z,12.80
2023-08-12T01:44:25.598Z,11.40
2023-08-12T01:46:53.872Z,7.87
2023-08-12T01:49:21.905Z,10.45
2023-08-12T01:51:52.293Z,10.13
2023-08-12T01:54:20.557Z,9.20
2023-08-12T01:56:49.062Z,12.50
2023-08-12T01:59:16.971Z,12.00
2023-08-12T02:01:45.209Z,10.95
2023-08-12T02:04:13.471Z,9.65
2023-08-12T02:06:41.356Z,9.95
2023-08-12T02:09:09.231Z,11.10
2023-08-12T02:11:37.478Z,12.93
2023-08-12T02:14:05.837Z,10.75
2023-08-12T02:16:36.660Z,13.20
2023-08-12T02:19:24.966Z,15.32
2023-08-12T02:21:54.869Z,11.40
2023-08-12T02:24:23.127Z,13.02
2023-08-12T02:26:51.053Z,11.12
2023-08-12T02:29:19.078Z,9.85
2023-08-12T02:31:50.348Z,12.95
2023-08-12T02:34:22.010Z,12.85
2023-08-12T02:36:50.398Z,12.13
2023-08-12T02:39:18.455Z,16.58
2023-08-12T02:41:46.429Z,11.00
2023-08-12T02:44:18.730Z,12.93
2023-08-12T02:46:46.626Z,13.13
2023-08-12T02:49:18.271Z,12.02
2023-08-12T02:51:46.175Z,9.70
2023-08-12T02:54:14.696Z,12.50
2023-08-12T02:56:42.684Z,11.55
2023-08-12T02:59:10.698Z,13.70
2023-08-12T03:01:39.121Z,9.57
2023-08-12T03:04:07.397Z,9.55
2023-08-12T03:06:35.344Z,10.85
2023-08-12T03:09:06.891Z,11.95
2023-08-12T03:11:35.074Z,10.50
2023-08-12T03:14:04.336Z,8.80
2023-08-12T03:16:32.446Z,8.07
2023-08-12T03:19:00.460Z,10.75
2023-08-12T03:21:28.853Z,8.88
2023-08-12T03:23:56.816Z,9.90
2023-08-12T03:26:24.764Z,10.10
2023-08-12T03:28:54.062Z,9.40
2023-08-12T03:31:22.560Z,11.43
2023-08-12T03:33:51.645Z,11.45
2023-08-12T03:36:23.736Z,7.62
2023-08-12T03:38:51.708Z,8.30
2023-08-12T03:41:24.942Z,8.70
2023-08-12T03:43:53.656Z,11.77
2023-08-12T03:46:22.137Z,9.13
2023-08-12T03:48:50.135Z,10.70
2023-08-12T03:51:22.007Z,8.40
2023-08-12T03:53:50.431Z,9.45
2023-08-12T03:56:18.798Z,8.50
2023-08-12T03:58:46.841Z,10.35
2023-08-12T04:01:15.069Z,7.20
2023-08-12T04:03:43.383Z,11.07
2023-08-12T04:06:11.353Z,8.60
2023-08-12T04:08:39.272Z,9.07
2023-08-12T04:11:11.127Z,8.95
2023-08-12T04:13:41.992Z,8.95
2023-08-12T04:16:14.385Z,13.18
2023-08-12T04:18:42.845Z,15.45
2023-08-12T04:21:12.416Z,8.10
2023-08-12T04:23:40.360Z,7.90
2023-08-12T05:55:28.836Z,11.48
2023-08-12T05:57:57.245Z,10.65
2023-08-12T06:00:25.896Z,9.45
2023-08-12T06:02:57.787Z,11.32
2023-08-12T06:05:29.153Z,10.35
2023-08-12T06:08:03.179Z,8.40
2023-08-12T06:10:31.284Z,10.00
2023-08-12T06:12:59.506Z,11.27
2023-08-12T06:15:27.579Z,9.68
2023-08-12T06:17:55.722Z,9.32
2023-08-12T06:20:25.185Z,10.48
2023-08-12T06:22:53.477Z,8.32
2023-08-12T06:25:24.485Z,9.40
2023-08-12T06:27:52.842Z,11.73
2023-08-12T06:30:20.942Z,9.48
2023-08-12T06:32:48.724Z,7.30
2023-08-12T06:35:17.228Z,8.77
2023-08-12T06:37:46.542Z,9.73
2023-08-12T06:40:17.199Z,9.07
2023-08-12T06:42:45.459Z,14.45
2023-08-12T06:45:13.626Z,8.73
2023-08-12T06:47:41.621Z,7.43
2023-08-12T06:50:10.402Z,8.48
2023-08-12T06:52:38.482Z,10.07
2023-08-12T06:55:07.156Z,8.38
2023-08-12T06:57:35.776Z,7.70
2023-08-12T07:00:06.619Z,8.80
2023-08-12T07:02:35.103Z,7.22
2023-08-12T07:05:03.632Z,8.40
2023-08-12T07:07:34.710Z,8.52
2023-08-12T07:10:02.849Z,6.75
2023-08-12T07:12:35.021Z,7.87
2023-08-12T07:15:02.970Z,11.03
2023-08-12T07:17:32.253Z,9.68
2023-08-12T07:20:00.494Z,7.32
2023-08-12T07:22:29.615Z,6.43
2023-08-12T07:25:01.413Z,9.05
2023-08-12T07:27:32.354Z,9.10
2023-08-12T07:30:00.876Z,6.30
2023-08-12T07:32:35.653Z,6.32
2023-08-12T07:35:04.313Z,7.60
2023-08-12T07:37:32.408Z,7.65
2023-08-12T07:40:00.460Z,10.32
2023-08-12T07:42:29.019Z,9.13
2023-08-12T07:44:56.895Z,10.10
2023-08-12T07:47:25.350Z,6.95
2023-08-12T07:49:54.252Z,7.80
2023-08-12T07:52:22.918Z,12.32
2023-08-12T07:54:51.426Z,10.48
2023-08-12T07:57:22.324Z,10.15
2023-08-12T07:59:50.919Z,11.35
2023-08-12T08:02:21.032Z,11.23
2023-08-12T08:04:50.738Z,10.30
2023-08-12T08:07:19.212Z,15.27
2023-08-12T08:09:47.439Z,22.80
2023-08-12T08:12:16.023Z,17.73
2023-08-12T08:14:44.455Z,13.88
2023-08-12T08:17:14.199Z,14.32
2023-08-12T08:19:43.751Z,10.75
2023-08-12T08:22:13.690Z,9.50
2023-08-12T08:24:43.578Z,8.23
2023-08-12T08:27:12.946Z,14.73
2023-08-12T08:29:42.159Z,10.82
2023-08-12T08:32:12.066Z,7.87
2023-08-12T08:34:44.883Z,9.30
2023-08-12T08:37:14.494Z,8.73
2023-08-12T08:39:44.200Z,13.98
2023-08-12T08:42:14.994Z,16.83
2023-08-12T08:44:45.330Z,18.00
2023-08-12T08:47:17.138Z,15.43
2023-08-12T08:49:48.743Z,13.25
2023-08-12T08:52:19.579Z,15.80
2023-08-12T08:54:50.081Z,20.45
2023-08-12T08:57:26.967Z,29.77
2023-08-12T09:00:17.616Z,15.52
2023-08-12T09:02:50.486Z,14.15
2023-08-12T09:05:22.427Z,13.05
2023-08-12T09:07:53.347Z,11.12
2023-08-12T09:10:27.842Z,12.80
2023-08-12T09:12:59.138Z,12.95
2023-08-12T09:15:28.827Z,14.52
2023-08-12T09:17:58.095Z,15.82
2023-08-12T09:20:29.458Z,13.60
2023-08-12T09:23:00.553Z,10.95
2023-08-12T09:25:31.320Z,10.57
2023-08-12T09:28:01.883Z,10.27
2023-08-12T09:33:30.324Z,14.68
2023-08-12T09:35:59.351Z,10.68
2023-08-12T09:41:16.619Z,10.75
2023-08-12T09:43:49.134Z,11.77
2023-08-12T09:46:18.152Z,11.45
2023-08-12T09:48:48.261Z,11.02
2023-08-12T09:51:18.367Z,12.77
2023-08-12T09:53:51.109Z,9.85
2023-08-12T09:56:22.417Z,11.75
2023-08-12T10:04:43.627Z,11.52
2023-08-12T10:07:15.229Z,8.88
2023-08-12T10:12:35.642Z,9.70
2023-08-12T10:15:10.215Z,9.32
2023-08-12T10:17:43.818Z,12.50
2023-08-12T10:20:22.005Z,9.30
2023-08-12T10:22:51.765Z,9.07
2023-08-12T10:25:25.369Z,10.23
2023-08-12T10:27:54.889Z,9.75
2023-08-12T10:30:24.680Z,11.23
2023-08-12T10:32:54.345Z,11.12
2023-08-12T10:35:24.107Z,14.32
2023-08-12T10:37:54.998Z,12.23
2023-08-12T10:46:01.661Z,10.57
2023-08-12T10:48:32.880Z,10.88
2023-08-12T10:53:52.866Z,8.23
2023-08-12T10:56:24.424Z,11.95
2023-08-12T10:58:55.046Z,11.10
2023-08-12T11:01:26.864Z,12.00
2023-08-12T11:04:02.206Z,8.38
2023-08-12T11:06:31.463Z,10.48
2023-08-12T11:09:01.434Z,9.95
2023-08-12T11:11:31.717Z,11.50
2023-08-12T11:14:16.397Z,11.50
2023-08-12T11:16:45.837Z,9.25
2023-08-12T11:19:16.376Z,12.00
2023-08-12T11:21:50.299Z,10.50
2023-08-12T11:24:21.994Z,15.38
2023-08-12T11:26:52.615Z,11.12
2023-08-12T11:29:22.460Z,12.07
2023-08-12T11:31:51.585Z,10.38
2023-08-12T11:34:22.781Z,10.43
2023-08-12T11:36:54.895Z,11.50
2023-08-12T11:39:25.616Z,9.20
2023-08-12T11:41:59.287Z,10.40
2023-08-12T11:44:34.022Z,10.63
2023-08-12T11:47:05.978Z,11.80
2023-08-12T11:49:35.266Z,10.50
2023-08-12T11:52:07.316Z,12.57
2023-08-12T11:54:37.895Z,12.00
2023-08-12T11:57:11.195Z,15.90
2023-08-12T11:59:41.645Z,15.90
2023-08-12T12:02:16.806Z,13.10
2023-08-12T12:04:47.836Z,11.77
2023-08-12T12:07:29.149Z,10.65
2023-08-12T12:12:32.178Z,11.57
2023-08-12T12:15:04.036Z,11.32
2023-08-12T12:17:41.713Z,10.50
2023-08-12T12:20:13.216Z,12.60
2023-08-12T12:22:45.341Z,10.55
2023-08-12T12:25:25.373Z,9.60
2023-08-12T12:27:57.890Z,10.80
2023-08-12T12:30:28.982Z,14.68
2023-08-12T12:33:00.859Z,7.05
2023-08-12T12:35:34.030Z,11.25
2023-08-12T12:38:05.541Z,10.05
2023-08-12T12:40:37.564Z,11.68
2023-08-12T12:43:10.916Z,11.75
2023-08-12T12:45:41.878Z,14.27
2023-08-12T12:48:12.669Z,10.45
2023-08-12T12:50:42.872Z,14.38
2023-08-12T12:53:12.656Z,18.02
2023-08-12T12:58:29.782Z,12.68
2023-08-12T13:00:59.709Z,11.90
2023-08-12T13:03:31.141Z,11.68
2023-08-12T13:06:01.501Z,12.30
2023-08-12T13:08:34.762Z,15.48
2023-08-12T13:11:05.865Z,12.25
2023-08-12T13:13:36.055Z,16.05
2023-08-12T13:16:06.536Z,14.07
2023-08-12T13:18:37.554Z,11.25
2023-08-12T13:21:09.315Z,14.40
2023-08-12T13:23:39.046Z,14.75
2023-08-12T13:26:12.803Z,9.57
2023-08-12T13:28:44.144Z,16.45
2023-08-12T13:31:14.649Z,13.25
2023-08-12T13:33:46.535Z,18.87
2023-08-12T13:36:17.828Z,12.55
2023-08-12T13:38:47.130Z,9.70
2023-08-12T13:41:18.042Z,11.73
2023-08-12T13:43:47.837Z,10.85
2023-08-12T13:46:17.998Z,8.32
2023-08-12T13:48:47.641Z,11.27
2023-08-12T13:51:17.485Z,12.20
2023-08-12T13:53:46.926Z,9.10
2023-08-12T13:56:18.071Z,12.30
2023-08-12T13:58:49.199Z,8.93
2023-08-12T14:01:18.665Z,10.75
2023-08-12T14:03:56.466Z,9.45
2023-08-12T14:06:28.551Z,9.68
2023-08-12T14:08:59.238Z,10.63
2023-08-12T14:11:28.562Z,9.90
2023-08-12T14:13:59.893Z,10.85
2023-08-12T14:16:30.456Z,12.02
2023-08-12T14:21:48.561Z,10.23
2023-08-12T14:24:18.651Z,8.25
2023-08-12T14:26:47.899Z,9.95
2023-08-12T14:29:17.779Z,9.02
2023-08-12T14:31:50.086Z,10.93
2023-08-12T14:34:19.880Z,11.23
2023-08-12T14:36:51.922Z,11.88
2023-08-12T14:39:23.687Z,15.38
2023-08-12T14:41:54.482Z,9.20
2023-08-12T14:44:26.555Z,12.13
2023-08-12T14:46:55.960Z,10.63
2023-08-12T14:52:25.225Z,11.57
2023-08-12T14:54:55.434Z,9.75
2023-08-12T14:57:26.144Z,15.57
2023-08-12T15:02:27.825Z,10.38
2023-08-12T15:04:58.125Z,13.05
2023-08-12T15:07:27.741Z,7.28
2023-08-12T15:10:00.808Z,11.82
2023-08-12T15:15:01.746Z,10.82
2023-08-12T15:17:33.935Z,10.07
2023-08-12T15:20:05.156Z,10.95
2023-08-12T15:22:34.594Z,11.93
2023-08-12T15:25:07.768Z,11.77
2023-08-12T15:27:37.221Z,11.90
2023-08-12T15:30:14.170Z,9.90
2023-08-12T15:32:44.378Z,13.18
2023-08-12T15:35:17.264Z,11.40
2023-08-12T15:37:46.506Z,12.48
2023-08-12T15:40:17.380Z,8.63
2023-08-12T15:42:49.875Z,12.45
2023-08-12T15:45:22.271Z,10.07
2023-08-12T15:47:51.525Z,8.98
2023-08-12T15:50:23.576Z,11.95
2023-08-12T15:52:53.871Z,8.05
2023-08-12T15:55:25.900Z,8.50
2023-08-12T15:57:56.054Z,11.50
2023-08-12T16:00:25.819Z,9.38
2023-08-12T16:02:58.642Z,11.23
2023-08-12T16:05:30.662Z,11.18
2023-08-12T16:08:00.402Z,10.27
2023-08-12T16:10:29.835Z,8.60
2023-08-12T16:12:59.023Z,11.77
2023-08-12T16:15:32.455Z,9.60
2023-08-12T16:18:05.087Z,9.02
2023-08-12T16:20:35.766Z,10.88
2023-08-12T16:23:06.225Z,21.02
2023-08-12T16:25:36.820Z,11.82
2023-08-12T16:28:07.082Z,10.98
2023-08-12T16:30:37.411Z,12.43
2023-08-12T16:35:55.373Z,10.40
2023-08-12T16:38:24.513Z,9.02
2023-08-12T16:40:56.610Z,9.38
2023-08-12T16:43:27.317Z,8.70
2023-08-12T16:46:01.196Z,10.35
2023-08-12T16:48:30.407Z,10.50
2023-08-12T16:51:00.421Z,14.25
2023-08-12T16:53:29.689Z,9.65
2023-08-12T16:55:59.206Z,11.18
2023-08-12T16:58:32.176Z,12.30
2023-08-12T17:01:07.234Z,11.38
2023-08-12T17:03:38.313Z,12.77
2023-08-12T17:06:12.248Z,10.80
2023-08-12T17:08:42.096Z,14.82
2023-08-12T17:11:12.357Z,11.32
2023-08-12T17:13:43.577Z,13.23
2023-08-12T17:16:14.805Z,10.98
2023-08-12T17:18:44.106Z,15.13
2023-08-12T17:21:15.784Z,12.45
2023-08-12T17:23:47.530Z,11.57
2023-08-12T17:26:22.806Z,11.35
2023-08-12T17:28:53.414Z,10.82
2023-08-12T17:31:23.739Z,10.68
2023-08-12T17:33:56.034Z,13.23
2023-08-12T17:36:27.917Z,10.60
2023-08-12T17:39:00.943Z,13.88
2023-08-12T17:41:36.342Z,13.98
2023-08-12T17:44:06.582Z,13.65
2023-08-12T17:46:37.483Z,15.63
2023-08-12T17:49:09.288Z,13.25
2023-08-12T17:51:43.335Z,11.50
2023-08-12T17:54:12.765Z,11.63
2023-08-12T17:56:46.582Z,15.25
2023-08-12T17:59:22.800Z,15.68
2023-08-12T18:01:54.624Z,14.30
2023-08-12T18:04:32.368Z,15.90
2023-08-12T18:07:09.341Z,18.83
2023-08-12T18:09:41.253Z,41.60
2023-08-12T18:12:13.010Z,32.35
2023-08-12T18:17:15.761Z,22.55
2023-08-12T18:19:46.227Z,31.10
2023-08-12T18:22:16.999Z,17.92
2023-08-12T18:24:51.225Z,19.65
2023-08-12T18:27:27.885Z,18.62
2023-08-12T18:30:04.896Z,18.27
2023-08-12T18:32:38.513Z,16.73
2023-08-12T18:35:09.620Z,17.50
2023-08-12T18:37:39.986Z,17.62
2023-08-12T18:40:11.917Z,22.65
2023-08-12T18:42:44.191Z,16.42
2023-08-12T18:45:15.308Z,19.77
2023-08-12T18:47:44.831Z,17.23
2023-08-12T18:50:18.677Z,15.80
2023-08-12T18:52:48.004Z,17.53
2023-08-12T18:55:19.418Z,13.95
2023-08-12T18:57:54.377Z,15.27
2023-08-12T19:00:27.140Z,15.57
2023-08-12T19:03:00.256Z,14.13
2023-08-12T19:05:39.641Z,16.62
2023-08-12T19:08:15.373Z,17.45
2023-08-12T19:10:54.620Z,16.67
2023-08-12T19:13:26.041Z,15.68
2023-08-12T19:15:58.980Z,20.77
2023-08-12T19:18:30.307Z,22.70
2023-08-12T19:23:51.938Z,21.37
2023-08-12T19:26:24.638Z,15.88
2023-08-12T19:28:59.252Z,19.62
2023-08-12T19:31:37.472Z,14.93
2023-08-12T19:34:08.023Z,18.58
2023-08-12T19:36:41.977Z,15.60
2023-08-12T19:39:12.936Z,18.83
2023-08-12T19:41:45.211Z,12.88
2023-08-12T19:44:16.771Z,15.47
2023-08-12T19:49:24.661Z,15.95
2023-08-12T19:51:58.808Z,12.85
2023-08-12T19:54:40.415Z,14.87
2023-08-12T19:57:12.625Z,18.90
2023-08-12T19:59:48.329Z,18.30
2023-08-12T20:02:41.887Z,14.45
2023-08-12T20:05:27.454Z,13.90
2023-08-12T20:08:01.264Z,17.45
2023-08-12T20:10:37.560Z,14.93
2023-08-12T20:13:11.466Z,15.38
2023-08-12T20:15:56.295Z,21.48
2023-08-12T20:18:31.134Z,16.85
2023-08-12T20:21:06.316Z,15.57
2023-08-12T20:23:46.632Z,15.48
2023-08-12T20:26:19.679Z,12.48
2023-08-12T20:28:53.022Z,17.27
2023-08-12T20:31:26.799Z,14.23
2023-08-12T20:34:00.321Z,15.75
2023-08-12T20:36:32.775Z,17.92
2023-08-12T20:39:02.580Z,14.30
2023-08-12T20:41:32.164Z,15.75
2023-08-12T20:44:01.339Z,12.40
2023-08-12T20:46:30.764Z,15.45
2023-08-12T20:48:59.741Z,16.95
2023-08-12T20:51:28.022Z,12.88
2023-08-12T20:53:57.631Z,15.00
2023-08-12T20:56:26.562Z,14.60
2023-08-12T20:58:54.461Z,17.12
2023-08-12T21:01:22.421Z,16.83
2023-08-12T21:03:50.738Z,16.65
2023-08-12T21:06:18.593Z,18.17
2023-08-12T21:08:46.513Z,20.92
2023-08-12T21:11:18.017Z,17.85
2023-08-12T21:13:49.135Z,14.05
2023-08-12T21:16:18.980Z,13.55
2023-08-12T21:18:48.314Z,16.12
2023-08-12T21:21:18.440Z,17.87
2023-08-12T21:23:46.647Z,18.25
2023-08-12T21:26:14.627Z,16.67
2023-08-12T21:28:42.684Z,17.15
2023-08-12T21:31:13.072Z,18.15
2023-08-12T21:33:41.617Z,20.30
2023-08-12T21:36:09.556Z,16.50
2023-08-12T21:38:37.969Z,16.60
2023-08-12T21:41:05.857Z,15.40
2023-08-12T21:43:33.797Z,17.85
2023-08-12T21:46:02.081Z,19.15
2023-08-12T21:48:30.104Z,16.73
2023-08-12T21:50:57.939Z,17.37
2023-08-12T21:53:26.185Z,17.62
2023-08-12T21:55:54.309Z,16.83
2023-08-12T21:58:22.168Z,16.10
2023-08-12T22:00:50.372Z,13.73
2023-08-12T22:03:18.568Z,14.48
2023-08-12T22:05:46.421Z,16.48
2023-08-12T22:08:14.297Z,15.65
2023-08-12T22:10:42.472Z,19.20
2023-08-12T22:13:10.555Z,17.02
2023-08-12T22:15:38.443Z,20.75
2023-08-12T22:18:07.385Z,14.93
2023-08-12T22:20:35.380Z,17.80
2023-08-12T22:23:03.845Z,15.05
2023-08-12T22:25:32.225Z,19.60
2023-08-12T22:28:00.148Z,16.23
2023-08-12T22:30:28.170Z,12.13
2023-08-12T22:32:56.497Z,18.12
2023-08-12T22:35:24.368Z,17.45
2023-08-12T22:37:52.297Z,12.70
2023-08-12T22:40:20.503Z,16.95
2023-08-12T22:42:48.456Z,15.43
2023-08-12T22:48:04.432Z,13.52
2023-08-12T22:50:32.270Z,16.40
2023-08-12T22:53:00.034Z,15.60
2023-08-12T22:55:28.365Z,15.50
2023-08-12T22:57:56.386Z,20.42
2023-08-12T23:00:24.534Z,12.30
2023-08-12T23:02:53.031Z,16.73
2023-08-12T23:05:20.968Z,14.00
2023-08-12T23:07:48.850Z,16.25
2023-08-12T23:10:17.123Z,14.38
2023-08-12T23:12:45.037Z,13.10
2023-08-12T23:15:12.979Z,17.33
2023-08-12T23:17:44.551Z,12.05
2023-08-12T23:20:12.921Z,13.27
2023-08-12T23:22:41.458Z,16.17
2023-08-12T23:25:09.718Z,16.17
2023-08-12T23:27:38.155Z,13.43
2023-08-12T23:30:07.224Z,13.13
2023-08-12T23:32:35.487Z,16.30
2023-08-12T23:35:03.515Z,16.42
2023-08-12T23:37:31.765Z,15.70
2023-08-12T23:39:59.878Z,12.65
2023-08-12T23:42:27.925Z,15.25
2023-08-12T23:44:56.289Z,16.33
2023-08-12T23:47:24.335Z,16.45
2023-08-12T23:49:54.133Z,13.38
2023-08-12T23:52:22.295Z,9.10
2023-08-12T23:54:50.288Z,11.35
2023-08-12T23:57:18.192Z,15.40
2023-08-12T23:59:46.639Z,10.63
